createdAt,value
2023-11-28T00:00:27.288Z,3.53
2023-11-28T00:02:50.311Z,3.49
2023-11-28T00:04:53.129Z,3.44
2023-11-28T00:06:56.034Z,3.40
2023-11-28T00:08:58.777Z,3.36
2023-11-28T00:11:01.814Z,3.35
2023-11-28T00:13:04.541Z,3.36
2023-11-28T00:15:07.995Z,3.37
2023-11-28T00:17:10.634Z,3.38
2023-11-28T00:19:13.413Z,3.39
2023-11-28T00:21:16.214Z,3.42
2023-11-28T00:23:19.174Z,3.45
2023-11-28T00:25:22.041Z,3.48
2023-11-28T00:27:24.725Z,3.51
2023-11-28T00:29:27.541Z,3.51
2023-11-28T00:31:30.881Z,3.50
2023-11-28T00:33:33.931Z,3.48
2023-11-28T00:35:36.831Z,3.43
2023-11-28T00:37:40.521Z,3.39
2023-11-28T00:39:43.584Z,3.37
2023-11-28T00:41:46.633Z,3.40
2023-11-28T00:43:49.382Z,3.44
2023-11-28T00:45:52.196Z,3.48
2023-11-28T00:47:55.853Z,3.52
2023-11-28T00:49:58.778Z,3.53
2023-11-28T00:52:01.643Z,3.55
2023-11-28T00:54:04.302Z,3.58
2023-11-28T00:56:07.904Z,3.60
2023-11-28T00:58:10.788Z,3.61
2023-11-28T01:00:14.505Z,3.62
2023-11-28T01:02:17.826Z,3.63
2023-11-28T01:04:22.007Z,3.62
2023-11-28T01:06:25.177Z,3.61
2023-11-28T01:08:28.617Z,3.62
2023-11-28T01:10:32.154Z,3.64
2023-11-28T01:12:34.797Z,3.68
2023-11-28T01:14:38.485Z,3.70
2023-11-28T01:16:41.251Z,3.72
2023-11-28T01:18:45.689Z,3.74
2023-11-28T01:20:48.387Z,3.74
2023-11-28T01:22:51.841Z,3.75
2023-11-28T01:24:54.945Z,3.75
2023-11-28T01:26:59.809Z,3.76
2023-11-28T01:29:04.920Z,3.77
2023-11-28T01:31:07.970Z,3.77
2023-11-28T01:33:10.883Z,3.77
2023-11-28T01:35:13.876Z,3.76
2023-11-28T01:37:19.617Z,3.72
2023-11-28T01:39:22.519Z,3.74
2023-11-28T01:41:25.343Z,3.76
2023-11-28T01:43:30.129Z,3.79
2023-11-28T01:45:33.238Z,3.81
2023-11-28T01:47:36.834Z,3.82
2023-11-28T01:49:40.501Z,3.82
2023-11-28T01:51:43.091Z,3.81
2023-11-28T01:53:46.499Z,3.81
2023-11-28T01:55:53.500Z,3.81
2023-11-28T01:57:58.324Z,3.81
2023-11-28T02:00:01.952Z,3.81
2023-11-28T02:02:07.657Z,3.81
2023-11-28T02:04:10.681Z,3.77
2023-11-28T02:06:14.182Z,3.72
2023-11-28T02:08:16.945Z,3.67
2023-11-28T02:10:20.710Z,3.64
2023-11-28T02:12:23.365Z,3.62
2023-11-28T02:14:26.551Z,3.57
2023-11-28T02:16:29.895Z,3.52
2023-11-28T02:18:32.729Z,3.50
2023-11-28T02:20:36.344Z,3.50
2023-11-28T02:22:39.062Z,3.52
2023-11-28T02:24:44.898Z,3.54
2023-11-28T02:26:47.624Z,3.50
2023-11-28T02:28:50.719Z,3.50
2023-11-28T02:30:54.988Z,3.48
2023-11-28T02:32:57.798Z,3.45
2023-11-28T02:35:11.512Z,3.42
2023-11-28T02:37:20.173Z,3.42
2023-11-28T02:39:22.782Z,3.44
2023-11-28T02:41:25.447Z,3.48
2023-11-28T02:43:28.352Z,3.51
2023-11-28T02:45:31.246Z,3.54
2023-11-28T02:47:35.203Z,3.54
2023-11-28T02:49:40.648Z,3.57
2023-11-28T02:51:45.090Z,3.59
2023-11-28T02:53:48.160Z,3.57
2023-11-28T02:55:50.915Z,3.54
2023-11-28T02:57:53.599Z,3.53
2023-11-28T02:59:58.864Z,3.52
2023-11-28T03:02:01.547Z,3.52
2023-11-28T03:04:04.366Z,3.54
2023-11-28T03:06:07.879Z,3.56
2023-11-28T03:08:10.565Z,3.60
2023-11-28T03:10:13.253Z,3.64
2023-11-28T03:12:15.940Z,3.68
2023-11-28T03:14:18.589Z,3.70
2023-11-28T03:16:21.346Z,3.70
2023-11-28T03:18:24.533Z,3.72
2023-11-28T03:20:27.246Z,3.72
2023-11-28T03:22:30.450Z,3.73
2023-11-28T03:24:33.796Z,3.73
2023-11-28T03:26:36.388Z,3.73
2023-11-28T03:28:40.555Z,3.72
2023-11-28T03:30:44.521Z,3.72
2023-11-28T03:32:47.214Z,3.72
2023-11-28T03:34:50.417Z,3.70
2023-11-28T03:36:53.539Z,3.72
2023-11-28T03:38:56.293Z,3.73
2023-11-28T03:40:58.905Z,3.72
2023-11-28T03:43:01.605Z,3.70
2023-11-28T03:45:05.696Z,3.69
2023-11-28T03:47:08.453Z,3.68
2023-11-28T03:49:11.017Z,3.69
2023-11-28T03:51:13.590Z,3.70
2023-11-28T03:53:16.348Z,3.72
2023-11-28T03:55:18.984Z,3.74
2023-11-28T03:57:21.863Z,3.76
2023-11-28T03:59:24.540Z,3.77
2023-11-28T04:01:27.746Z,3.76
2023-11-28T04:03:30.522Z,3.76
2023-11-28T04:05:33.324Z,3.77
2023-11-28T04:07:40.830Z,3.77
2023-11-28T04:09:44.320Z,3.75
2023-11-28T04:11:47.208Z,3.74
2023-11-28T04:13:51.235Z,3.75
2023-11-28T04:15:54.237Z,3.75
2023-11-28T04:17:57.548Z,3.77
2023-11-28T04:20:00.858Z,3.78
2023-11-28T04:22:04.044Z,3.80
2023-11-28T04:24:07.122Z,3.82
2023-11-28T04:26:10.491Z,3.84
2023-11-28T04:28:14.239Z,3.86
2023-11-28T04:30:18.052Z,3.89
2023-11-28T04:32:21.241Z,3.92
2023-11-28T04:34:24.126Z,3.93
2023-11-28T04:36:27.136Z,3.95
2023-11-28T04:38:30.927Z,3.96
2023-11-28T04:40:34.244Z,3.96
2023-11-28T04:42:40.407Z,4.00
2023-11-28T04:44:43.134Z,4.02
2023-11-28T04:46:45.788Z,4.03
2023-11-28T04:48:49.311Z,4.03
2023-11-28T04:50:52.192Z,4.01
2023-11-28T04:52:55.835Z,3.98
2023-11-28T04:54:58.779Z,3.95
2023-11-28T04:57:01.739Z,3.92
2023-11-28T04:59:04.968Z,3.89
2023-11-28T05:01:08.119Z,3.87
2023-11-28T05:03:11.781Z,3.87
2023-11-28T05:05:15.663Z,3.91
2023-11-28T05:07:19.296Z,3.94
2023-11-28T05:09:22.999Z,3.94
2023-11-28T05:11:26.097Z,3.96
2023-11-28T05:13:37.901Z,3.97
2023-11-28T05:15:41.689Z,3.99
2023-11-28T05:17:44.473Z,3.99
2023-11-28T05:19:47.181Z,3.99
2023-11-28T05:21:50.362Z,3.99
2023-11-28T05:23:53.071Z,3.98
2023-11-28T05:25:56.832Z,3.96
2023-11-28T05:27:59.503Z,3.93
2023-11-28T05:30:02.750Z,3.94
2023-11-28T05:32:07.002Z,3.94
2023-11-28T05:34:11.382Z,3.96
2023-11-28T05:36:14.009Z,3.99
2023-11-28T05:38:17.254Z,4.00
2023-11-28T05:40:20.240Z,4.01
2023-11-28T05:42:23.810Z,4.02
2023-11-28T05:44:26.607Z,4.02
2023-11-28T05:46:29.763Z,4.02
2023-11-28T05:48:32.983Z,4.01
2023-11-28T05:50:35.659Z,4.01
2023-11-28T05:52:39.072Z,4.00
2023-11-28T05:54:42.004Z,3.97
2023-11-28T05:56:44.643Z,3.97
2023-11-28T05:58:47.693Z,3.96
2023-11-28T06:00:50.920Z,3.96
2023-11-28T06:02:56.163Z,3.94
2023-11-28T06:04:59.970Z,3.93
2023-11-28T06:07:03.639Z,3.95
2023-11-28T06:09:07.553Z,3.97
2023-11-28T06:11:10.963Z,3.98
2023-11-28T06:13:14.827Z,3.99
2023-11-28T06:15:18.479Z,4.00
2023-11-28T06:17:21.509Z,4.00
2023-11-28T06:19:24.261Z,4.02
2023-11-28T06:21:28.700Z,4.02
2023-11-28T06:23:31.275Z,4.02
2023-11-28T06:25:33.915Z,4.03
2023-11-28T06:27:36.821Z,4.04
2023-11-28T06:29:39.410Z,4.07
2023-11-28T06:31:42.566Z,4.06
2023-11-28T06:33:45.699Z,4.05
2023-11-28T06:35:49.421Z,4.06
2023-11-28T06:37:52.495Z,4.08
2023-11-28T06:39:56.324Z,4.07
2023-11-28T06:42:02.077Z,4.06
2023-11-28T06:44:05.523Z,4.05
2023-11-28T06:46:08.343Z,4.03
2023-11-28T06:48:11.166Z,4.03
2023-11-28T06:50:14.055Z,4.00
2023-11-28T06:52:17.893Z,3.98
2023-11-28T06:54:20.638Z,3.98
2023-11-28T06:56:23.403Z,3.96
2023-11-28T06:58:26.387Z,3.95
2023-11-28T07:00:29.046Z,3.93
2023-11-28T07:02:33.111Z,3.91
2023-11-28T07:04:38.053Z,3.87
2023-11-28T07:06:41.960Z,3.88
2023-11-28T07:08:44.666Z,3.89
2023-11-28T07:10:47.468Z,3.92
2023-11-28T07:12:50.949Z,3.92
2023-11-28T07:14:53.693Z,3.94
2023-11-28T07:16:56.420Z,3.94
2023-11-28T07:19:00.058Z,3.96
2023-11-28T07:21:02.788Z,3.96
2023-11-28T07:23:06.004Z,3.97
2023-11-28T07:25:10.255Z,3.97
2023-11-28T07:27:12.886Z,3.96
2023-11-28T07:29:17.016Z,3.95
2023-11-28T07:31:20.203Z,3.94
2023-11-28T07:33:24.286Z,3.94
2023-11-28T07:35:27.064Z,3.93
2023-11-28T07:37:30.024Z,3.93
2023-11-28T07:39:33.543Z,3.97
2023-11-28T07:41:36.245Z,4.00
2023-11-28T07:43:39.495Z,4.03
2023-11-28T07:45:42.422Z,4.05
2023-11-28T07:47:45.538Z,4.07
2023-11-28T07:49:48.934Z,4.10
2023-11-28T07:51:51.667Z,4.12
2023-11-28T07:53:54.308Z,4.13
2023-11-28T07:55:57.028Z,4.12
2023-11-28T07:57:59.773Z,4.10
2023-11-28T08:00:07.188Z,4.10
2023-11-28T08:02:15.684Z,4.09
2023-11-28T08:04:18.543Z,4.08
2023-11-28T08:06:21.282Z,4.04
2023-11-28T08:08:24.401Z,4.01
2023-11-28T08:10:27.275Z,3.95
2023-11-28T08:12:30.036Z,3.88
2023-11-28T08:14:33.133Z,3.83
2023-11-28T08:16:36.062Z,3.83
2023-11-28T08:18:41.264Z,3.85
2023-11-28T08:20:46.161Z,3.88
2023-11-28T08:22:50.431Z,3.87
2023-11-28T08:24:54.716Z,3.83
2023-11-28T08:26:58.610Z,3.83
2023-11-28T08:29:01.474Z,3.85
2023-11-28T08:31:04.467Z,3.88
2023-11-28T08:33:07.266Z,3.89
2023-11-28T08:35:10.279Z,3.91
2023-11-28T08:37:16.422Z,3.93
2023-11-28T08:39:19.815Z,3.94
2023-11-28T08:41:23.185Z,3.94
2023-11-28T08:43:25.895Z,3.94
2023-11-28T08:45:28.605Z,3.95
2023-11-28T08:47:31.408Z,3.95
2023-11-28T08:49:34.566Z,3.93
2023-11-28T08:51:37.790Z,3.92
2023-11-28T08:53:40.571Z,3.90
2023-11-28T08:55:44.111Z,3.91
2023-11-28T08:57:47.206Z,3.93
2023-11-28T08:59:49.995Z,3.92
2023-11-28T09:01:52.944Z,3.89
2023-11-28T09:03:56.201Z,3.88
2023-11-28T09:05:59.050Z,3.88
2023-11-28T09:08:04.692Z,3.87
2023-11-28T09:10:08.367Z,3.87
2023-11-28T09:12:11.095Z,3.86
2023-11-28T09:14:15.555Z,3.86
2023-11-28T09:16:18.508Z,3.85
2023-11-28T09:18:21.213Z,3.83
2023-11-28T09:20:24.211Z,3.79
2023-11-28T09:22:27.882Z,3.75
2023-11-28T09:24:32.939Z,3.70
2023-11-28T09:26:36.205Z,3.67
2023-11-28T09:28:39.276Z,3.64
2023-11-28T09:30:42.036Z,3.61
2023-11-28T09:32:45.021Z,3.57
2023-11-28T09:34:48.438Z,3.56
2023-11-28T09:36:51.249Z,3.56
2023-11-28T09:38:55.170Z,3.58
2023-11-28T09:40:57.934Z,3.61
2023-11-28T09:43:00.931Z,3.60
2023-11-28T09:45:06.443Z,3.55
2023-11-28T09:47:11.790Z,3.51
2023-11-28T09:49:18.080Z,3.48
2023-11-28T09:51:22.020Z,3.47
2023-11-28T09:53:29.947Z,3.46
2023-11-28T09:55:33.279Z,3.45
2023-11-28T09:57:42.396Z,3.44
2023-11-28T09:59:48.114Z,3.40
2023-11-28T10:01:53.146Z,3.33
2023-11-28T10:03:56.641Z,3.30
2023-11-28T10:06:00.868Z,3.26
2023-11-28T10:08:08.950Z,3.22
2023-11-28T10:10:14.001Z,3.20
2023-11-28T10:12:17.449Z,3.18
2023-11-28T10:14:21.626Z,3.14
2023-11-28T10:17:03.912Z,3.13
2023-11-28T10:19:07.475Z,3.15
2023-11-28T10:21:11.061Z,3.15
2023-11-28T10:23:17.606Z,3.14
2023-11-28T10:25:24.285Z,3.14
2023-11-28T10:27:29.947Z,3.14
2023-11-28T10:29:37.687Z,3.13
2023-11-28T10:31:41.528Z,3.11
2023-11-28T10:33:45.037Z,3.07
2023-11-28T10:35:47.652Z,3.05
2023-11-28T10:37:50.584Z,3.05
2023-11-28T10:39:56.279Z,3.04
2023-11-28T10:41:59.345Z,3.05
2023-11-28T10:44:02.547Z,3.07
2023-11-28T10:46:06.452Z,3.09
2023-11-28T10:48:11.146Z,3.12
2023-11-28T10:50:15.699Z,3.13
2023-11-28T10:52:20.844Z,3.12
2023-11-28T10:54:26.645Z,3.11
2023-11-28T10:56:36.388Z,3.12
2023-11-28T10:58:41.025Z,3.14
2023-11-28T11:00:46.796Z,3.18
2023-11-28T11:02:50.176Z,3.22
2023-11-28T11:04:53.193Z,3.25
2023-11-28T11:06:57.099Z,3.25
2023-11-28T11:09:00.167Z,3.25
2023-11-28T11:11:03.713Z,3.25
2023-11-28T11:13:23.271Z,3.22
2023-11-28T11:15:32.955Z,3.21
2023-11-28T11:17:58.858Z,3.22
2023-11-28T11:20:06.144Z,3.22
2023-11-28T11:22:11.974Z,3.24
2023-11-28T11:24:20.738Z,3.22
2023-11-28T11:26:54.002Z,3.23
2023-11-28T11:28:58.342Z,3.23
2023-11-28T11:31:16.655Z,3.21
2023-11-28T11:33:25.425Z,3.24
2023-11-28T11:35:31.580Z,3.21
2023-11-28T11:37:37.510Z,3.19
2023-11-28T11:39:51.438Z,3.18
2023-11-28T11:41:58.554Z,3.24
2023-11-28T11:44:02.165Z,3.28
2023-11-28T11:46:14.039Z,3.31
2023-11-28T11:48:27.017Z,3.33
2023-11-28T11:50:38.026Z,3.35
2023-11-28T11:52:41.996Z,3.30
2023-11-28T11:54:46.419Z,3.26
2023-11-28T11:56:49.129Z,3.19
2023-11-28T11:58:52.125Z,3.14
2023-11-28T12:00:54.909Z,3.13
2023-11-28T12:03:00.357Z,3.12
2023-11-28T12:05:06.654Z,3.11
2023-11-28T12:07:14.104Z,3.13
2023-11-28T12:09:16.721Z,3.09
2023-11-28T12:11:19.683Z,3.01
2023-11-28T12:13:23.864Z,2.99
2023-11-28T12:15:27.109Z,2.98
2023-11-28T12:17:29.902Z,2.94
2023-11-28T12:19:33.891Z,2.93
2023-11-28T12:23:39.837Z,2.90
2023-11-28T12:25:43.946Z,2.87
2023-11-28T12:27:47.621Z,2.85
2023-11-28T12:29:51.086Z,2.83
2023-11-28T12:31:56.836Z,2.84
2023-11-28T12:33:59.688Z,2.84
2023-11-28T12:36:02.686Z,2.84
2023-11-28T12:38:11.375Z,2.84
2023-11-28T12:40:14.130Z,2.85
2023-11-28T12:42:18.409Z,2.85
2023-11-28T12:44:22.843Z,2.83
2023-11-28T12:46:25.672Z,2.86
2023-11-28T12:48:29.074Z,2.85
2023-11-28T12:50:32.034Z,2.83
2023-11-28T12:52:39.605Z,2.84
2023-11-28T12:54:43.025Z,2.84
2023-11-28T12:56:51.525Z,2.83
2023-11-28T12:58:54.325Z,2.82
2023-11-28T13:00:57.017Z,2.79
2023-11-28T13:03:00.454Z,2.78
2023-11-28T13:05:03.671Z,2.78
2023-11-28T13:07:14.242Z,2.79
2023-11-28T13:09:26.144Z,2.76
2023-11-28T13:11:30.960Z,2.70
2023-11-28T13:13:35.602Z,2.66
2023-11-28T13:15:38.405Z,2.65
2023-11-28T13:17:41.155Z,2.65
2023-11-28T13:19:43.809Z,2.61
2023-11-28T13:21:46.683Z,2.58
2023-11-28T13:23:50.943Z,2.54
2023-11-28T13:25:53.734Z,2.49
2023-11-28T13:27:58.288Z,2.45
2023-11-28T13:30:02.466Z,2.42
2023-11-28T13:32:06.521Z,2.41
2023-11-28T13:34:13.515Z,2.34
2023-11-28T13:36:17.406Z,2.30
2023-11-28T13:38:22.853Z,2.26
2023-11-28T13:40:26.237Z,2.26
2023-11-28T13:42:29.103Z,2.28
2023-11-28T13:44:32.770Z,2.32
2023-11-28T13:46:35.714Z,2.34
2023-11-28T13:48:38.595Z,2.35
2023-11-28T13:50:41.240Z,2.36
2023-11-28T13:52:44.329Z,2.35
2023-11-28T13:54:47.974Z,2.33
2023-11-28T13:56:50.653Z,2.32
2023-11-28T13:58:53.403Z,2.30
2023-11-28T14:00:56.401Z,2.30
2023-11-28T14:03:01.760Z,2.32
2023-11-28T14:05:05.918Z,2.32
2023-11-28T14:07:09.026Z,2.34
2023-11-28T14:09:13.576Z,2.34
2023-11-28T14:11:16.448Z,2.31
2023-11-28T14:13:20.384Z,2.25
2023-11-28T14:15:24.632Z,2.18
2023-11-28T14:17:27.722Z,2.14
2023-11-28T14:19:30.662Z,2.14
2023-11-28T14:21:35.595Z,2.13
2023-11-28T14:23:38.341Z,2.11
2023-11-28T14:25:41.104Z,2.08
2023-11-28T14:27:45.031Z,2.09
2023-11-28T14:29:48.534Z,2.08
2023-11-28T14:31:51.536Z,2.11
2023-11-28T14:33:55.261Z,2.10
2023-11-28T14:35:58.920Z,2.10
2023-11-28T14:38:01.796Z,2.09
2023-11-28T14:40:09.646Z,2.05
2023-11-28T14:42:12.648Z,2.00
2023-11-28T14:44:15.336Z,1.95
2023-11-28T14:46:18.625Z,1.91
2023-11-28T14:48:21.421Z,1.93
2023-11-28T14:50:24.160Z,1.96
2023-11-28T14:52:37.414Z,1.95
2023-11-28T14:54:41.531Z,2.00
2023-11-28T14:56:44.210Z,2.00
2023-11-28T14:58:46.816Z,1.98
2023-11-28T15:00:52.705Z,2.00
2023-11-28T15:02:59.055Z,2.04
2023-11-28T15:05:01.935Z,2.05
2023-11-28T15:07:05.738Z,2.04
2023-11-28T15:09:08.834Z,2.02
2023-11-28T15:11:16.574Z,2.02
2023-11-28T15:13:20.439Z,2.02
2023-11-28T15:15:28.423Z,2.05
2023-11-28T15:17:31.178Z,2.07
2023-11-28T15:19:34.032Z,2.07
2023-11-28T15:21:36.810Z,2.06
2023-11-28T15:23:40.027Z,2.05
2023-11-28T15:25:43.191Z,2.01
2023-11-28T15:27:46.417Z,2.01
2023-11-28T15:29:50.707Z,2.02
2023-11-28T15:31:54.460Z,2.02
2023-11-28T15:33:57.992Z,2.03
2023-11-28T15:36:00.776Z,2.04
2023-11-28T15:38:04.126Z,2.05
2023-11-28T15:40:09.575Z,2.06
2023-11-28T15:42:12.389Z,2.03
2023-11-28T15:44:15.037Z,1.98
2023-11-28T15:46:17.841Z,1.95
2023-11-28T15:48:21.662Z,1.91
2023-11-28T15:50:24.401Z,1.92
2023-11-28T15:52:27.093Z,1.91
2023-11-28T15:54:29.757Z,1.93
2023-11-28T15:56:32.772Z,1.93
2023-11-28T15:58:35.478Z,1.94
2023-11-28T16:00:38.295Z,1.98
2023-11-28T16:02:42.990Z,2.02
2023-11-28T16:04:46.098Z,2.06
2023-11-28T16:06:49.460Z,2.08
2023-11-28T16:08:52.186Z,2.10
2023-11-28T16:10:54.916Z,2.10
2023-11-28T16:12:58.446Z,2.12
2023-11-28T16:15:03.395Z,2.14
2023-11-28T16:17:06.499Z,2.16
2023-11-28T16:19:09.742Z,2.15
2023-11-28T16:21:12.994Z,2.15
2023-11-28T16:23:16.357Z,2.16
2023-11-28T16:25:19.082Z,2.15
2023-11-28T16:27:23.426Z,2.12
2023-11-28T16:29:28.641Z,2.09
2023-11-28T16:31:31.533Z,2.05
2023-11-28T16:33:39.325Z,2.02
2023-11-28T16:35:42.012Z,2.05
2023-11-28T16:37:44.661Z,2.09
2023-11-28T16:39:47.383Z,2.12
2023-11-28T16:41:51.346Z,2.11
2023-11-28T16:43:55.035Z,2.13
2023-11-28T16:45:58.287Z,2.16
2023-11-28T16:48:03.420Z,2.20
2023-11-28T16:50:08.010Z,2.20
2023-11-28T16:52:12.159Z,2.23
2023-11-28T16:54:15.046Z,2.24
2023-11-28T16:56:19.026Z,2.22
2023-11-28T16:58:23.307Z,2.18
2023-11-28T17:00:28.613Z,2.16
2023-11-28T17:02:39.179Z,2.15
2023-11-28T17:04:43.114Z,2.15
2023-11-28T17:06:48.054Z,2.14
2023-11-28T17:08:57.067Z,2.11
2023-11-28T17:11:00.301Z,2.07
2023-11-28T17:13:06.129Z,2.04
2023-11-28T17:15:09.828Z,1.97
2023-11-28T17:17:15.028Z,1.92
2023-11-28T17:19:19.984Z,1.89
2023-11-28T17:21:23.733Z,1.90
2023-11-28T17:23:27.815Z,1.94
2023-11-28T17:25:30.890Z,2.00
2023-11-28T17:27:34.712Z,2.02
2023-11-28T17:29:38.481Z,2.02
2023-11-28T17:31:41.493Z,2.04
2023-11-28T17:33:44.427Z,2.06
2023-11-28T17:35:47.230Z,2.09
2023-11-28T17:37:50.350Z,2.10
2023-11-28T17:39:53.089Z,2.12
2023-11-28T17:41:55.725Z,2.12
2023-11-28T17:43:58.560Z,2.12
2023-11-28T17:46:02.676Z,2.13
2023-11-28T17:48:05.794Z,2.13
2023-11-28T17:50:09.847Z,2.12
2023-11-28T17:52:12.588Z,2.12
2023-11-28T17:54:15.355Z,2.08
2023-11-28T17:56:19.046Z,2.03
2023-11-28T17:58:25.889Z,2.01
2023-11-28T18:00:28.592Z,1.98
2023-11-28T18:02:31.339Z,1.93
2023-11-28T18:04:41.098Z,1.89
2023-11-28T18:06:50.387Z,1.86
2023-11-28T18:08:53.282Z,1.85
2023-11-28T18:10:55.870Z,1.82
2023-11-28T18:13:03.652Z,1.82
2023-11-28T18:15:18.950Z,1.82
2023-11-28T18:17:29.652Z,1.83
2023-11-28T18:19:33.014Z,1.82
2023-11-28T18:21:36.124Z,1.81
2023-11-28T18:23:39.508Z,1.79
2023-11-28T18:25:43.225Z,1.78
2023-11-28T18:27:47.022Z,1.78
2023-11-28T18:29:50.873Z,1.82
2023-11-28T18:31:55.131Z,1.83
2023-11-28T18:33:58.589Z,1.84
2023-11-28T18:36:08.082Z,1.86
2023-11-28T18:38:11.175Z,1.88
2023-11-28T18:40:15.420Z,1.88
2023-11-28T18:42:19.421Z,1.87
2023-11-28T18:44:24.282Z,1.86
2023-11-28T18:46:27.072Z,1.85
2023-11-28T18:48:31.823Z,1.83
2023-11-28T18:50:35.678Z,1.81
2023-11-28T18:52:39.261Z,1.77
2023-11-28T18:54:42.779Z,1.70
2023-11-28T18:56:48.106Z,1.67
2023-11-28T18:58:52.552Z,1.65
2023-11-28T19:00:55.800Z,1.60
2023-11-28T19:02:59.163Z,1.55
2023-11-28T19:05:03.795Z,1.53
2023-11-28T19:07:07.998Z,1.49
2023-11-28T19:09:10.658Z,1.44
2023-11-28T19:11:16.292Z,1.42
2023-11-28T19:13:19.743Z,1.40
2023-11-28T19:15:23.794Z,1.38
2023-11-28T19:17:26.466Z,1.33
2023-11-28T19:19:33.010Z,1.33
2023-11-28T19:21:42.616Z,1.37
2023-11-28T19:23:45.283Z,1.40
2023-11-28T19:25:48.003Z,1.40
2023-11-28T19:27:51.353Z,1.40
2023-11-28T19:29:55.231Z,1.41
2023-11-28T19:32:01.417Z,1.40
2023-11-28T19:34:04.857Z,1.41
2023-11-28T19:36:08.547Z,1.41
2023-11-28T19:38:13.101Z,1.39
2023-11-28T19:40:21.575Z,1.37
2023-11-28T19:42:26.028Z,1.38
2023-11-28T19:44:28.821Z,1.33
2023-11-28T19:46:33.145Z,1.30
2023-11-28T19:48:42.357Z,1.28
2023-11-28T19:50:47.977Z,1.25
2023-11-28T19:52:53.150Z,1.25
2023-11-28T19:54:56.660Z,1.27
2023-11-28T19:56:59.743Z,1.26
2023-11-28T19:59:03.623Z,1.20
2023-11-28T20:01:08.901Z,1.12
2023-11-28T20:03:13.477Z,1.01
2023-11-28T20:05:16.938Z,0.95
2023-11-28T20:07:20.302Z,0.92
2023-11-28T20:09:23.180Z,0.89
2023-11-28T20:11:25.794Z,0.96
2023-11-28T20:13:29.384Z,1.02
2023-11-28T20:15:31.998Z,1.08
2023-11-28T20:17:38.464Z,1.11
2023-11-28T20:19:44.063Z,1.11
2023-11-28T20:21:48.769Z,1.08
2023-11-28T20:23:55.853Z,1.06
2023-11-28T20:25:59.583Z,1.06
2023-11-28T20:28:03.037Z,1.06
2023-11-28T20:30:10.619Z,1.04
2023-11-28T20:32:14.248Z,1.06
2023-11-28T20:34:20.071Z,1.07
2023-11-28T20:36:26.771Z,1.06
2023-11-28T20:38:31.334Z,1.04
2023-11-28T20:40:34.586Z,1.03
2023-11-28T20:42:38.558Z,1.00
2023-11-28T20:44:42.344Z,0.97
2023-11-28T20:46:45.778Z,0.97
2023-11-28T20:48:49.247Z,0.94
2023-11-28T20:50:52.054Z,0.92
2023-11-28T20:52:58.143Z,0.91
2023-11-28T20:55:03.300Z,0.94
2023-11-28T20:57:06.855Z,0.99
2023-11-28T20:59:10.094Z,1.02
2023-11-28T21:01:15.239Z,1.05
2023-11-28T21:03:18.655Z,1.07
2023-11-28T21:05:23.294Z,1.10
2023-11-28T21:07:28.694Z,1.07
2023-11-28T21:09:31.801Z,1.07
2023-11-28T21:11:35.311Z,1.07
2023-11-28T21:13:39.275Z,1.03
2023-11-28T21:15:42.764Z,1.02
2023-11-28T21:17:46.669Z,0.99
2023-11-28T21:19:50.586Z,0.95
2023-11-28T21:21:55.103Z,0.93
2023-11-28T21:23:57.921Z,0.91
2023-11-28T21:26:04.793Z,0.91
2023-11-28T21:28:10.895Z,0.93
2023-11-28T21:30:14.684Z,0.92
2023-11-28T21:32:18.153Z,0.88
2023-11-28T21:34:21.100Z,0.85
2023-11-28T21:36:25.832Z,0.85
2023-11-28T21:38:28.448Z,0.88
2023-11-28T21:40:31.268Z,0.93
2023-11-28T21:42:35.906Z,0.97
2023-11-28T21:44:38.946Z,1.02
2023-11-28T21:46:42.836Z,1.07
2023-11-28T21:48:46.841Z,1.09
2023-11-28T21:50:50.602Z,1.09
2023-11-28T21:52:53.445Z,1.09
2023-11-28T21:54:56.163Z,1.07
2023-11-28T21:56:59.107Z,1.02
2023-11-28T21:59:01.934Z,1.02
2023-11-28T22:01:04.913Z,1.02
2023-11-28T22:03:10.214Z,1.01
2023-11-28T22:05:13.212Z,1.00
2023-11-28T22:07:17.122Z,1.01
2023-11-28T22:09:19.912Z,0.94
2023-11-28T22:11:22.749Z,0.91
2023-11-28T22:13:26.526Z,0.90
2023-11-28T22:15:32.067Z,0.92
2023-11-28T22:17:34.852Z,0.93
2023-11-28T22:19:37.810Z,0.91
2023-11-28T22:21:40.850Z,0.87
2023-11-28T22:23:43.616Z,0.85
2023-11-28T22:25:46.892Z,0.83
2023-11-28T22:27:49.904Z,0.82
2023-11-28T22:29:52.701Z,0.83
2023-11-28T22:31:55.555Z,0.82
2023-11-28T22:33:58.774Z,0.80
2023-11-28T22:36:03.023Z,0.77
2023-11-28T22:38:05.664Z,0.77
2023-11-28T22:40:10.599Z,0.74
2023-11-28T22:42:13.348Z,0.77
2023-11-28T22:44:16.474Z,0.81
2023-11-28T22:46:19.173Z,0.84
2023-11-28T22:48:22.276Z,0.87
2023-11-28T22:50:31.111Z,0.92
2023-11-28T22:52:33.983Z,0.95
2023-11-28T22:54:36.920Z,0.99
2023-11-28T22:56:49.230Z,1.01
2023-11-28T22:58:53.912Z,1.03
2023-11-28T23:00:58.312Z,1.06
2023-11-28T23:03:01.024Z,1.07
2023-11-28T23:05:06.467Z,1.06
2023-11-28T23:07:09.329Z,1.04
2023-11-28T23:09:13.671Z,1.03
2023-11-28T23:11:17.989Z,1.02
2023-11-28T23:13:20.700Z,0.97
2023-11-28T23:15:23.524Z,0.93
2023-11-28T23:17:26.756Z,0.92
2023-11-28T23:19:29.408Z,0.93
2023-11-28T23:21:34.342Z,0.94
2023-11-28T23:23:39.981Z,0.94
2023-11-28T23:25:42.583Z,0.95
2023-11-28T23:27:45.354Z,0.94
2023-11-28T23:29:47.989Z,0.95
2023-11-28T23:31:50.636Z,0.93
2023-11-28T23:33:53.275Z,0.92
2023-11-28T23:35:59.447Z,0.92
2023-11-28T23:38:02.344Z,0.92
2023-11-28T23:40:07.016Z,0.93
2023-11-28T23:42:09.692Z,0.92
2023-11-28T23:44:12.322Z,0.92
2023-11-28T23:46:15.071Z,0.95
2023-11-28T23:48:17.837Z,0.98
2023-11-28T23:50:22.247Z,1.01
2023-11-28T23:52:25.517Z,1.02
2023-11-28T23:54:28.199Z,1.03
2023-11-28T23:56:30.997Z,1.04
2023-11-28T23:58:34.053Z,1.05
